Time;durP1;ratioP1;P1;durP2;ratioP2;P2;SDS_P1;SDS_P2;PMS_P1;PMS_P2;Temp;Humidity;BMP_temperature;BMP_pressure;BME280_temperature;BME280_humidity;BME280_pressure;Samples;Min_cycle;Max_cycle;Signal;HPM_P1;HPM_P2
2023/05/11 00:01:08;;;;;;;12.13;4.17;;;7.70;99.60;6.90;100904;;;;582908;246;25140;-77
2023/05/11 00:03:36;;;;;;;13.50;4.80;;;7.80;99.00;7.00;100900;;;;572417;246;24081;-77
2023/05/11 00:06:04;;;;;;;12.97;4.17;;;7.90;97.10;7.00;100905;;;;580878;246;24080;-76
2023/05/11 00:08:32;;;;;;;10.70;3.50;;;7.90;99.90;7.00;100903;;;;582448;246;24112;-78
2023/05/11 00:11:01;;;;;;;8.73;3.70;;;7.80;97.90;7.00;100896;;;;582807;244;24134;-74
2023/05/11 00:13:29;;;;;;;10.47;3.73;;;8.10;97.90;7.00;100901;;;;582786;244;25131;-72
2023/05/11 00:15:57;;;;;;;11.63;3.37;;;7.90;97.60;7.10;100891;;;;581336;246;24076;-75
2023/05/11 00:18:26;;;;;;;11.33;4.03;;;7.90;99.30;7.10;100895;;;;582802;244;25137;-77
2023/05/11 00:20:55;;;;;;;14.83;4.57;;;7.60;97.70;7.10;100896;;;;572562;246;24172;-76
2023/05/11 00:23:23;;;;;;;10.37;3.90;;;7.90;98.20;7.10;100902;;;;582728;246;24113;-74
2023/05/11 00:25:51;;;;;;;12.97;4.40;;;7.90;98.10;7.00;100892;;;;582755;246;24098;-77
2023/05/11 00:28:19;;;;;;;12.33;4.17;;;9.30;98.60;7.00;100892;;;;582784;246;24078;-75
2023/05/11 00:30:48;;;;;;;10.30;4.13;;;7.90;98.40;7.00;100901;;;;572164;246;24103;-77
2023/05/11 00:33:16;;;;;;;12.50;3.97;;;7.90;98.50;7.00;100899;;;;580948;245;24126;-78
2023/05/11 00:35:44;;;;;;;9.37;4.03;;;8.00;99.90;7.00;100898;;;;582839;246;25145;-76
2023/05/11 00:38:13;;;;;;;9.17;3.73;;;7.90;98.80;7.00;100895;;;;583821;244;24151;-72
2023/05/11 00:40:41;;;;;;;12.43;4.20;;;7.90;99.00;7.00;100897;;;;583921;244;24101;-74
2023/05/11 00:43:09;;;;;;;15.63;5.17;;;7.90;99.90;7.00;100894;;;;583560;246;24096;-73
2023/05/11 00:45:38;;;;;;;11.00;4.03;;;7.80;99.10;6.90;100895;;;;583511;246;24071;-72
2023/05/11 00:48:09;;;;;;;9.30;2.83;;;7.90;99.90;6.90;100901;;;;573127;246;24093;-75
2023/05/11 00:50:33;;;;;;;9.07;3.27;;;7.80;99.40;6.80;100893;;;;578808;246;24078;-74
2023/05/11 00:53:01;;;;;;;10.27;3.80;;;7.90;99.90;6.80;100889;;;;572935;246;24106;-73
2023/05/11 00:55:30;;;;;;;14.73;5.13;;;7.70;99.90;6.80;100898;;;;581710;246;24096;-72
2023/05/11 00:57:58;;;;;;;13.37;4.77;;;7.60;99.90;6.80;100892;;;;581475;245;24137;-75
2023/05/11 01:00:26;;;;;;;6.93;3.33;;;7.70;99.90;6.70;100899;;;;583140;246;24105;-74
2023/05/11 01:02:54;;;;;;;9.53;3.93;;;7.40;99.90;6.60;100895;;;;583378;246;24089;-73
2023/05/11 01:05:21;;;;;;;9.63;3.23;;;7.30;99.90;6.60;100890;;;;582011;246;24090;-74
2023/05/11 01:08:07;;;;;;;10.50;3.90;;;7.50;99.90;6.60;100902;;;;582880;246;24091;-76
2023/05/11 01:10:41;;;;;;;10.43;3.60;;;7.50;99.90;6.60;100901;;;;570973;246;24089;-77
2023/05/11 01:13:31;;;;;;;11.17;3.93;;;7.30;99.90;6.60;100892;;;;572572;246;24097;-73
2023/05/11 01:15:59;;;;;;;10.70;4.00;;;7.50;99.90;6.70;100893;;;;572624;246;24128;-74
2023/05/11 01:18:41;;;;;;;13.03;4.17;;;7.30;99.90;6.70;100904;;;;583125;246;24142;-75
2023/05/11 01:21:10;;;;;;;11.20;3.80;;;7.80;99.90;6.70;100896;;;;572214;246;24097;-74
2023/05/11 01:24:18;;;;;;;13.83;4.30;;;7.60;99.90;6.70;100901;;;;582768;246;25183;-78
2023/05/11 01:27:14;;;;;;;7.03;2.87;;;7.50;99.90;6.70;100907;;;;572640;246;24095;-78
2023/05/11 01:30:31;;;;;;;13.80;4.13;;;7.10;99.90;6.70;100896;;;;572612;246;24093;-77
2023/05/11 01:32:59;;;;;;;13.33;3.50;;;7.60;99.90;6.70;100895;;;;572565;246;24094;-77
2023/05/11 01:35:27;;;;;;;11.13;4.13;;;7.40;99.90;6.70;100902;;;;582069;246;24109;-74
2023/05/11 01:37:56;;;;;;;6.87;3.17;;;7.50;99.90;6.60;100908;;;;582219;246;24154;-74
2023/05/11 01:40:23;;;;;;;6.80;3.13;;;7.30;99.90;6.60;100902;;;;582453;246;24146;-72
2023/05/11 01:42:52;;;;;;;9.40;3.90;;;7.40;99.90;6.50;100912;;;;582625;246;24105;-73
2023/05/11 01:45:20;;;;;;;19.50;5.03;;;7.40;99.90;6.50;100913;;;;576157;246;24111;-75
2023/05/11 01:47:52;;;;;;;10.83;4.03;;;7.30;99.90;6.50;100909;;;;582775;244;24142;-76
2023/05/11 01:50:21;;;;;;;10.82;4.65;;;7.40;99.90;6.50;100912;;;;568474;246;35367;-77
2023/05/11 01:52:46;;;;;;;20.23;5.63;;;7.40;99.90;6.50;100908;;;;583552;246;24090;-77
2023/05/11 01:55:14;;;;;;;8.43;3.53;;;7.20;99.90;6.50;100902;;;;582125;246;24120;-78
2023/05/11 01:57:42;;;;;;;9.50;3.43;;;7.10;99.90;6.50;100909;;;;583341;242;24103;-76
2023/05/11 02:00:10;;;;;;;9.90;4.27;;;7.20;99.90;6.50;100908;;;;581323;246;24150;-74
2023/05/11 02:02:40;;;;;;;10.83;4.17;;;7.50;99.90;6.50;100912;;;;581576;246;24083;-73
2023/05/11 02:05:06;;;;;;;10.03;4.17;;;7.40;99.90;6.40;100911;;;;577591;246;35399;-71
2023/05/11 02:07:39;;;;;;;14.40;5.90;;;7.40;99.90;6.40;100911;;;;566313;246;35362;-73
2023/05/11 02:10:03;;;;;;;7.80;3.60;;;7.30;99.90;6.40;100914;;;;582479;246;24085;-73
2023/05/11 02:12:32;;;;;;;9.05;4.50;;;7.40;99.90;6.40;100916;;;;576487;246;46261;-73
2023/05/11 02:15:00;;;;;;;9.20;3.73;;;7.20;99.90;6.40;100921;;;;582743;244;24086;-74
2023/05/11 02:17:31;;;;;;;12.20;4.10;;;7.60;99.90;6.50;100922;;;;572303;246;24175;-73
2023/05/11 02:19:59;;;;;;;10.83;4.40;;;7.20;99.90;6.40;100915;;;;578495;246;24105;-73
2023/05/11 02:22:24;;;;;;;12.07;4.13;;;7.00;99.90;6.30;100924;;;;572166;246;24137;-73
2023/05/11 02:24:52;;;;;;;11.47;3.73;;;6.90;99.90;6.30;100925;;;;572309;246;24107;-73
2023/05/11 02:27:24;;;;;;;10.27;4.17;;;6.40;99.90;6.30;100925;;;;581193;246;24186;-77
2023/05/11 02:29:49;;;;;;;10.93;4.20;;;7.10;99.90;6.20;100920;;;;569843;246;24105;-79
2023/05/11 02:32:16;;;;;;;10.57;3.43;;;6.80;99.90;6.10;100924;;;;582497;246;24098;-78
2023/05/11 02:34:47;;;;;;;13.83;4.87;;;6.90;99.90;6.10;100921;;;;572088;246;24138;-79
2023/05/11 02:37:16;;;;;;;12.73;4.53;;;6.80;99.90;6.10;100921;;;;575480;246;24101;-77
2023/05/11 02:39:44;;;;;;;16.63;4.43;;;6.90;99.90;6.00;100928;;;;582140;245;24112;-77
2023/05/11 02:42:14;;;;;;;8.37;3.47;;;7.10;99.90;6.00;100929;;;;582290;246;24124;-77
2023/05/11 02:44:49;;;;;;;12.20;4.40;;;6.90;99.90;6.00;100919;;;;582497;246;24167;-78
2023/05/11 02:47:17;;;;;;;21.30;4.57;;;7.10;99.90;6.00;100927;;;;580511;246;24110;-78
2023/05/11 02:49:49;;;;;;;7.90;3.90;;;6.90;99.90;6.00;100928;;;;572534;246;24079;-76
2023/05/11 02:52:14;;;;;;;8.90;3.20;;;6.80;99.90;6.00;100925;;;;582263;246;24137;-77
2023/05/11 02:54:42;;;;;;;13.10;3.53;;;6.80;99.90;5.90;100925;;;;572403;246;24101;-75
2023/05/11 02:57:11;;;;;;;18.20;5.33;;;6.80;99.90;5.90;100918;;;;572357;243;24094;-76
2023/05/11 02:59:44;;;;;;;13.52;5.55;;;6.90;99.90;6.00;100928;;;;567378;244;35292;-78
2023/05/11 03:02:09;;;;;;;10.87;4.17;;;6.90;99.90;6.00;100931;;;;572980;246;24208;-78
2023/05/11 03:04:36;;;;;;;10.23;3.87;;;7.00;99.90;6.00;100928;;;;583288;246;24157;-78
2023/05/11 03:07:05;;;;;;;10.63;4.37;;;6.90;99.90;6.00;100930;;;;571222;246;24179;-77
2023/05/11 03:09:33;;;;;;;8.43;3.20;;;6.90;99.90;6.00;100925;;;;571177;246;24104;-78
2023/05/11 03:12:02;;;;;;;10.20;4.07;;;6.90;99.90;6.00;100926;;;;570952;246;24112;-76
2023/05/11 03:14:37;;;;;;;12.40;4.73;;;7.10;99.90;6.00;100928;;;;572980;246;24083;-77
2023/05/11 03:17:02;;;;;;;16.50;5.85;;;6.90;99.90;6.00;100932;;;;567886;246;35362;-77
2023/05/11 03:19:33;;;;;;;14.53;4.63;;;6.90;99.90;5.90;100927;;;;581219;246;24083;-78
2023/05/11 03:21:58;;;;;;;15.57;4.97;;;7.10;99.90;5.90;100930;;;;571875;245;24160;-77
2023/05/11 03:24:27;;;;;;;12.17;4.80;;;6.80;99.90;5.90;100934;;;;572528;246;24098;-75
2023/05/11 03:26:55;;;;;;;12.83;4.17;;;6.80;99.90;5.90;100946;;;;575361;246;24122;-77
2023/05/11 03:29:23;;;;;;;11.77;4.27;;;6.80;99.90;5.90;100929;;;;572503;246;24097;-77
2023/05/11 03:31:52;;;;;;;13.77;4.87;;;6.80;99.90;6.00;100940;;;;582611;246;24112;-77
2023/05/11 03:34:23;;;;;;;10.80;4.27;;;6.50;99.90;6.00;100930;;;;572413;246;24140;-78
2023/05/11 03:36:53;;;;;;;11.03;4.50;;;6.90;99.90;6.10;100943;;;;582208;246;24103;-76
2023/05/11 03:39:17;;;;;;;11.27;4.50;;;7.10;99.90;6.20;100945;;;;572144;246;24107;-76
2023/05/11 03:41:46;;;;;;;9.90;3.87;;;7.10;99.90;6.30;100945;;;;570422;246;24132;-75
2023/05/11 03:44:14;;;;;;;10.98;5.22;;;7.30;99.90;6.40;100940;;;;577584;246;35383;-76
2023/05/11 03:46:42;;;;;;;11.53;4.00;;;7.30;99.90;6.70;100940;;;;578271;246;24148;-78
2023/05/11 03:49:09;;;;;;;16.97;4.43;;;8.40;99.90;7.70;100959;;;;582158;245;24106;-74
2023/05/11 03:51:38;;;;;;;12.27;4.53;;;9.40;99.90;8.90;100955;;;;580900;246;24086;-77
2023/05/11 03:54:06;;;;;;;11.13;4.03;;;10.30;99.90;9.70;100958;;;;570169;246;24137;-75
2023/05/11 03:56:38;;;;;;;11.30;4.33;;;11.00;99.90;10.30;100961;;;;571947;246;25159;-76
2023/05/11 03:59:06;;;;;;;6.17;3.27;;;11.60;98.10;11.20;100968;;;;582323;246;24110;-76
2023/05/11 04:01:38;;;;;;;9.07;3.73;;;13.20;97.70;12.30;100965;;;;572073;246;24145;-74
2023/05/11 04:04:02;;;;;;;11.10;4.63;;;14.20;94.10;13.30;100976;;;;580098;245;24078;-74
2023/05/11 04:06:30;;;;;;;9.63;5.00;;;14.40;90.50;14.10;100970;;;;577464;246;39889;-73
2023/05/11 04:08:58;;;;;;;11.97;4.80;;;16.10;83.70;15.10;100978;;;;572187;246;24070;-76
2023/05/11 04:11:29;;;;;;;10.13;5.10;;;16.90;76.30;16.00;100971;;;;582914;245;24190;-73
2023/05/11 04:13:54;;;;;;;15.05;5.93;;;17.60;73.70;16.60;100973;;;;577197;246;35349;-73
2023/05/11 04:16:22;;;;;;;12.03;5.57;;;18.10;70.80;17.10;100975;;;;583484;246;24105;-74
2023/05/11 04:18:50;;;;;;;13.03;5.93;;;18.70;68.10;17.80;100968;;;;583699;246;24089;-75
2023/05/11 04:21:18;;;;;;;10.07;4.63;;;19.40;64.20;18.50;100970;;;;581122;246;24068;-75
2023/05/11 04:23:46;;;;;;;9.17;5.10;;;20.10;60.00;19.10;100985;;;;583357;246;24113;-74
2023/05/11 04:26:13;;;;;;;12.50;5.30;;;20.60;57.70;19.90;100980;;;;578452;244;35377;-73
2023/05/11 04:28:41;;;;;;;8.13;4.40;;;21.00;57.30;20.40;100987;;;;573229;246;24081;-73
2023/05/11 04:31:09;;;;;;;9.43;5.10;;;22.10;54.40;20.80;100997;;;;583310;246;24070;-76
2023/05/11 04:33:37;;;;;;;10.07;4.93;;;22.10;54.10;21.40;100995;;;;583728;246;24117;-78
2023/05/11 04:36:05;;;;;;;11.57;5.03;;;23.30;51.70;21.90;100998;;;;583116;244;23098;-77
2023/05/11 04:38:33;;;;;;;12.93;5.67;;;23.20;50.50;22.30;101003;;;;580781;246;23093;-78
2023/05/11 04:41:04;;;;;;;11.57;4.73;;;24.40;48.90;23.20;101008;;;;582743;246;24114;-78
2023/05/11 04:43:32;;;;;;;7.00;5.12;;;24.50;47.10;23.70;101008;;;;575230;246;35337;-78
2023/05/11 04:46:00;;;;;;;10.57;5.07;;;24.80;47.40;23.90;101010;;;;577599;246;23190;-76
2023/05/11 04:48:28;;;;;;;17.53;6.00;;;25.40;45.10;24.70;101018;;;;580663;246;23143;-74
2023/05/11 04:50:56;;;;;;;8.27;4.07;;;25.90;45.60;25.10;101011;;;;583042;246;25166;-74
2023/05/11 04:53:24;;;;;;;8.03;4.60;;;26.90;44.20;25.60;101023;;;;583139;246;24111;-73
2023/05/11 04:55:53;;;;;;;7.67;4.67;;;26.90;44.20;26.30;101029;;;;583274;246;24145;-74
2023/05/11 04:58:20;;;;;;;9.27;3.90;;;27.50;42.70;26.30;101020;;;;582961;246;23101;-74
2023/05/11 05:00:48;;;;;;;8.57;4.47;;;27.70;42.00;26.60;101033;;;;583465;246;23088;-77
2023/05/11 05:03:16;;;;;;;10.87;4.60;;;27.90;41.60;26.90;101038;;;;582742;246;23099;-77
2023/05/11 05:05:44;;;;;;;9.97;5.00;;;28.20;40.80;27.10;101038;;;;582467;246;23101;-77
2023/05/11 05:08:16;;;;;;;15.05;5.32;;;28.40;40.40;27.20;101047;;;;580033;246;23101;-79
2023/05/11 05:10:40;;;;;;;8.20;5.23;;;28.50;39.80;27.10;101043;;;;582214;246;23102;-78
2023/05/11 05:13:08;;;;;;;7.17;4.43;;;28.50;39.60;26.80;101047;;;;579959;246;23117;-77
2023/05/11 05:15:36;;;;;;;12.93;5.97;;;28.20;39.60;27.20;101047;;;;582516;244;23089;-76
2023/05/11 05:18:03;;;;;;;13.43;5.70;;;28.40;40.00;27.80;101052;;;;582813;246;23124;-76
2023/05/11 05:20:33;;;;;;;12.43;5.80;;;28.90;39.60;28.50;101053;;;;580472;246;24133;-77
2023/05/11 05:22:59;;;;;;;16.50;5.75;;;29.50;39.20;29.30;101063;;;;583128;244;23126;-74
2023/05/11 05:25:27;;;;;;;8.38;5.18;;;30.20;38.20;29.40;101060;;;;584198;246;24125;-76
2023/05/11 05:27:55;;;;;;;8.05;4.57;;;30.50;37.20;29.60;101055;;;;583785;246;24145;-77
2023/05/11 05:30:23;;;;;;;11.65;5.18;;;30.60;37.00;29.90;101059;;;;583625;246;23112;-77
2023/05/11 05:32:51;;;;;;;7.57;4.60;;;30.90;36.40;30.20;101064;;;;583474;246;23092;-76
2023/05/11 05:35:20;;;;;;;13.07;5.78;;;31.30;35.80;30.20;101067;;;;583346;246;23114;-75
2023/05/11 05:37:48;;;;;;;12.77;4.87;;;31.20;35.70;30.50;101067;;;;583226;246;23139;-77
2023/05/11 05:40:16;;;;;;;8.48;4.15;;;31.40;35.90;30.80;101074;;;;583349;246;23087;-78
2023/05/11 05:42:44;;;;;;;9.60;5.15;;;31.90;35.20;30.90;101080;;;;582672;246;23110;-76
2023/05/11 05:45:12;;;;;;;10.38;5.68;;;31.90;35.20;31.10;101076;;;;582720;244;23092;-77
2023/05/11 05:47:40;;;;;;;7.75;5.00;;;31.80;34.10;31.10;101085;;;;580723;246;23160;-75
2023/05/11 05:50:11;;;;;;;5.47;4.90;;;32.10;34.70;31.10;101083;;;;583023;244;23132;-74
2023/05/11 05:52:36;;;;;;;9.93;5.28;;;32.10;35.60;31.30;101087;;;;572570;246;23128;-75
2023/05/11 05:55:07;;;;;;;6.57;4.30;;;32.30;34.50;31.60;101080;;;;582995;246;23123;-76
2023/05/11 05:57:35;;;;;;;9.23;4.50;;;32.80;33.90;31.40;101083;;;;577740;246;23167;-75
2023/05/11 06:00:00;;;;;;;5.25;3.90;;;32.50;34.10;31.40;101088;;;;579695;246;23104;-75
2023/05/11 06:02:28;;;;;;;30.37;6.18;;;32.40;34.80;31.90;101085;;;;582535;246;23113;-76
2023/05/11 06:04:56;;;;;;;43.83;8.50;;;32.70;33.90;31.70;101092;;;;572196;246;23155;-74
2023/05/11 06:07:23;;;;;;;24.63;5.37;;;32.70;34.10;32.50;101099;;;;582301;246;23112;-74
2023/05/11 06:09:51;;;;;;;8.15;4.95;;;33.20;33.80;32.30;101093;;;;582272;246;24173;-76
2023/05/11 06:12:19;;;;;;;16.83;4.95;;;33.20;33.70;32.70;101095;;;;582340;245;23112;-75
2023/05/11 06:14:47;;;;;;;8.75;4.60;;;33.60;32.70;32.50;101103;;;;572108;246;23108;-75
2023/05/11 06:17:15;;;;;;;9.07;4.28;;;33.50;33.10;32.60;101093;;;;582393;246;23078;-76
2023/05/11 06:19:43;;;;;;;10.77;5.53;;;33.80;33.00;33.20;101099;;;;582819;246;24163;-76
2023/05/11 06:22:11;;;;;;;26.98;7.30;;;33.80;33.40;34.00;101099;;;;582756;244;23094;-74
2023/05/11 06:24:39;;;;;;;20.50;5.68;;;34.60;33.10;34.40;101107;;;;582787;246;24144;-76
2023/05/11 06:27:07;;;;;;;12.48;5.22;;;35.10;33.20;35.30;101111;;;;582713;244;23091;-77
2023/05/11 06:29:35;;;;;;;10.10;4.82;;;35.90;33.00;35.80;101120;;;;582791;244;24163;-75
2023/05/11 06:32:03;;;;;;;9.55;4.53;;;36.50;31.50;35.10;101113;;;;582799;246;24100;-75
2023/05/11 06:34:31;;;;;;;7.37;4.68;;;36.10;31.60;34.60;101110;;;;583138;244;23111;-75
2023/05/11 06:37:01;;;;;;;10.35;5.35;;;35.90;31.90;35.00;101122;;;;584163;246;23139;-75
2023/05/11 06:39:29;;;;;;;8.30;4.15;;;35.70;32.10;34.90;101109;;;;583812;246;23131;-74
2023/05/11 06:41:57;;;;;;;23.00;6.55;;;35.70;32.10;35.20;101111;;;;573373;246;23119;-75
2023/05/11 06:44:29;;;;;;;10.20;4.87;;;36.60;32.10;36.20;101119;;;;583185;246;24130;-75
2023/05/11 06:46:57;;;;;;;14.80;5.15;;;37.40;31.70;37.00;101116;;;;582669;242;23203;-76
2023/05/11 06:49:23;;;;;;;13.48;4.93;;;37.60;31.00;36.90;101113;;;;583150;246;24133;-75
2023/05/11 06:51:52;;;;;;;6.55;3.65;;;37.20;31.10;36.30;101112;;;;583362;244;23087;-75
2023/05/11 06:54:20;;;;;;;12.45;4.97;;;37.20;31.10;36.80;101108;;;;583050;246;23127;-78
2023/05/11 06:56:48;;;;;;;10.93;4.93;;;37.50;31.60;37.90;101124;;;;580690;246;23088;-78
2023/05/11 06:59:16;;;;;;;19.58;4.93;;;38.50;30.10;37.70;101117;;;;581138;245;23101;-77
2023/05/11 07:01:45;;;;;;;7.30;4.70;;;38.70;30.60;38.20;101116;;;;582751;244;23124;-76
2023/05/11 07:04:13;;;;;;;7.30;4.05;;;38.80;30.00;38.40;101118;;;;582667;244;23093;-75
2023/05/11 07:06:41;;;;;;;8.85;4.10;;;39.00;29.80;38.50;101121;;;;582517;244;23090;-75
2023/05/11 07:09:09;;;;;;;6.87;4.25;;;39.10;29.70;38.30;101120;;;;582665;244;23111;-75
2023/05/11 07:11:41;;;;;;;10.10;4.15;;;39.10;29.80;38.70;101116;;;;582354;244;23103;-75
2023/05/11 07:14:09;;;;;;;9.43;3.75;;;39.20;29.50;38.20;101121;;;;579720;246;23164;-75
2023/05/11 07:16:37;;;;;;;5.82;3.62;;;39.10;29.90;38.50;101122;;;;582356;246;24132;-74
2023/05/11 07:19:02;;;;;;;4.57;3.85;;;39.80;29.60;39.50;101119;;;;580378;246;24187;-76
2023/05/11 07:21:31;;;;;;;5.40;3.33;;;39.80;29.50;40.10;101129;;;;583086;246;23189;-76
2023/05/11 07:23:58;;;;;;;12.15;4.20;;;40.50;29.30;40.00;101137;;;;575511;246;35341;-75
2023/05/11 07:26:26;;;;;;;11.98;3.95;;;40.60;28.90;39.70;101137;;;;580757;246;23095;-75
2023/05/11 07:28:54;;;;;;;8.50;4.05;;;40.60;28.90;39.10;101132;;;;583322;246;23115;-74
2023/05/11 07:31:22;;;;;;;10.65;3.87;;;40.10;29.00;38.80;101126;;;;581750;246;23118;-74
2023/05/11 07:33:50;;;;;;;12.13;4.32;;;39.70;29.30;38.80;101126;;;;584108;246;23112;-75
2023/05/11 07:36:18;;;;;;;14.27;4.53;;;39.50;29.50;39.00;101135;;;;583366;244;23122;-75
2023/05/11 07:38:47;;;;;;;9.95;4.03;;;39.10;29.40;38.10;101134;;;;582921;246;24104;-75
2023/05/11 07:41:16;;;;;;;11.85;4.10;;;39.00;29.30;38.10;101133;;;;582762;244;23132;-75
2023/05/11 07:43:42;;;;;;;82.32;7.30;;;38.90;30.00;38.00;101130;;;;580393;246;23103;-75
2023/05/11 07:46:11;;;;;;;12.05;3.42;;;38.80;28.90;38.50;101126;;;;577716;244;35284;-75
2023/05/11 07:48:38;;;;;;;9.52;3.50;;;39.10;29.30;39.10;101130;;;;582656;246;23096;-73
2023/05/11 07:51:06;;;;;;;11.63;3.17;;;39.60;28.80;39.00;101122;;;;583787;246;23072;-75
2023/05/11 07:53:37;;;;;;;7.55;3.40;;;39.60;28.70;38.70;101139;;;;581251;246;23150;-74
2023/05/11 07:56:02;;;;;;;19.62;4.22;;;39.60;28.50;37.70;101123;;;;583169;244;24122;-74
2023/05/11 07:58:33;;;;;;;13.68;4.15;;;38.80;28.70;37.70;101132;;;;583064;246;23096;-75
2023/05/11 08:01:01;;;;;;;9.02;3.50;;;38.60;28.80;37.00;101118;;;;581575;246;23116;-74
2023/05/11 08:03:26;;;;;;;4.45;2.78;;;38.20;28.90;36.90;101120;;;;573067;246;23120;-75
2023/05/11 08:05:54;;;;;;;7.43;3.05;;;37.90;29.10;36.60;101124;;;;582978;246;23090;-74
2023/05/11 08:08:21;;;;;;;6.20;3.10;;;37.80;29.00;36.80;101118;;;;583041;246;23144;-74
2023/05/11 08:11:02;;;;;;;6.55;3.62;;;37.70;29.20;36.90;101115;;;;583106;246;23121;-74
2023/05/11 08:13:27;;;;;;;6.78;3.55;;;37.70;28.90;36.30;101105;;;;574768;246;23110;-76
2023/05/11 08:15:54;;;;;;;13.23;3.92;;;37.40;29.00;36.50;101112;;;;583078;244;23127;-75
2023/05/11 08:18:22;;;;;;;6.65;3.20;;;37.40;29.00;37.10;101118;;;;582733;246;23152;-75
2023/05/11 08:20:50;;;;;;;6.90;3.00;;;37.70;29.40;37.40;101120;;;;583109;246;23125;-75
2023/05/11 08:23:18;;;;;;;6.43;2.75;;;38.10;28.90;37.20;101114;;;;582865;246;23083;-74
2023/05/11 08:25:50;;;;;;;8.48;3.00;;;38.20;28.40;36.40;101121;;;;582870;246;24116;-74
2023/05/11 08:28:17;;;;;;;6.97;3.58;;;37.70;28.60;36.20;101128;;;;581155;246;23107;-76
2023/05/11 08:30:45;;;;;;;7.97;3.12;;;37.30;28.90;36.30;101121;;;;580474;246;23096;-73
2023/05/11 08:33:14;;;;;;;19.60;5.37;;;37.50;28.80;36.50;101123;;;;582819;246;23112;-74
2023/05/11 08:35:49;;;;;;;7.15;2.60;;;37.40;28.70;36.40;101124;;;;580473;246;24100;-75
2023/05/11 08:38:13;;;;;;;5.35;2.97;;;37.50;28.70;36.20;101118;;;;580434;246;24135;-75
2023/05/11 08:40:46;;;;;;;4.18;2.20;;;37.40;28.70;36.00;101126;;;;580379;246;23100;-74
2023/05/11 08:43:11;;;;;;;21.40;3.80;;;37.20;28.50;35.20;101107;;;;580219;246;23159;-76
2023/05/11 08:45:39;;;;;;;15.82;3.50;;;36.60;28.90;35.20;101113;;;;572558;246;23103;-75
2023/05/11 08:48:07;;;;;;;4.82;2.65;;;36.40;29.00;35.40;101105;;;;582399;246;23098;-76
2023/05/11 08:50:35;;;;;;;4.60;2.62;;;36.40;28.50;35.10;101113;;;;580481;246;23112;-76
2023/05/11 08:53:03;;;;;;;4.05;2.53;;;36.40;28.60;34.30;101116;;;;582857;246;24147;-75
2023/05/11 08:55:31;;;;;;;5.70;2.30;;;35.80;28.70;33.80;101111;;;;582421;245;23097;-74
2023/05/11 08:57:59;;;;;;;15.95;3.15;;;35.30;28.60;34.00;101103;;;;580839;244;23136;-76
2023/05/11 09:00:28;;;;;;;19.62;3.20;;;35.20;29.00;34.30;101113;;;;581323;246;23107;-75
2023/05/11 09:02:55;;;;;;;7.62;2.60;;;35.50;28.60;34.70;101112;;;;581815;246;23135;-77
2023/05/11 09:05:26;;;;;;;10.93;2.87;;;35.70;28.20;34.70;101102;;;;573054;246;24179;-74
2023/05/11 09:07:51;;;;;;;20.88;4.22;;;35.10;27.60;34.70;101106;;;;580629;246;23110;-75
2023/05/11 09:10:18;;;;;;;10.02;2.50;;;36.00;27.80;34.90;101103;;;;581424;246;23091;-76
2023/05/11 09:12:46;;;;;;;6.50;2.80;;;36.10;27.70;35.30;101100;;;;580602;246;23125;-76
2023/05/11 09:15:14;;;;;;;22.15;3.72;;;36.50;27.80;35.40;101101;;;;580537;246;24142;-76
2023/05/11 09:17:42;;;;;;;24.55;4.00;;;36.70;26.90;35.20;101105;;;;582745;244;23097;-78
2023/05/11 09:20:10;;;;;;;9.48;2.92;;;36.70;27.30;35.30;101114;;;;583091;246;23111;-77
2023/05/11 09:22:44;;;;;;;10.25;2.92;;;36.80;27.40;35.00;101136;;;;580699;246;23105;-76
2023/05/11 09:25:12;;;;;;;4.35;2.47;;;36.60;27.20;34.60;101103;;;;580002;246;24222;-74
2023/05/11 09:27:43;;;;;;;4.62;3.05;;;35.70;27.60;33.90;101103;;;;572847;246;23093;-75
2023/05/11 09:30:10;;;;;;;28.00;4.95;;;35.20;27.90;33.60;101108;;;;572608;246;24091;-74
2023/05/11 09:32:56;;;;;;;16.83;2.72;;;35.30;27.80;34.00;101108;;;;576764;246;23123;-74
2023/05/11 09:35:32;;;;;;;13.18;3.28;;;35.40;28.20;34.40;101103;;;;572274;246;23137;-75
2023/05/11 09:38:09;;;;;;;7.90;2.62;;;35.70;27.80;35.10;101108;;;;569991;246;23101;-74
2023/05/11 09:40:43;;;;;;;21.73;4.05;;;36.50;28.10;35.00;101122;;;;572559;246;24126;-75
2023/05/11 09:43:23;;;;;;;18.33;3.42;;;36.50;27.50;34.80;101105;;;;577548;246;23097;-73
2023/05/11 09:45:51;;;;;;;6.62;2.10;;;36.50;27.40;35.50;101104;;;;572593;246;23097;-75
2023/05/11 09:48:19;;;;;;;7.70;3.33;;;36.80;27.40;36.10;101084;;;;581159;245;24162;-77
2023/05/11 09:50:47;;;;;;;30.60;3.95;;;37.40;27.00;35.40;101111;;;;579865;246;23108;-74
2023/05/11 09:53:15;;;;;;;12.40;2.60;;;37.20;27.10;35.30;101106;;;;571006;246;23233;-75
2023/05/11 09:55:52;;;;;;;5.28;2.70;;;37.00;27.30;36.10;101099;;;;582180;246;23097;-76
2023/05/11 09:58:20;;;;;;;3.28;2.62;;;37.70;26.90;36.50;101106;;;;580077;243;23122;-75
2023/05/11 10:00:53;;;;;;;7.93;3.47;;;38.10;26.80;36.30;101094;;;;580047;246;23140;-75
2023/05/11 10:03:18;;;;;;;4.82;2.67;;;38.10;26.90;35.90;101086;;;;579747;246;23136;-77
2023/05/11 10:05:58;;;;;;;10.25;3.37;;;37.90;26.80;36.20;101083;;;;580176;246;24124;-77
2023/05/11 10:08:35;;;;;;;18.20;4.32;;;38.00;27.00;37.80;101083;;;;567300;246;35426;-75
2023/05/11 10:11:03;;;;;;;9.60;3.58;;;39.30;26.80;37.50;101079;;;;563247;250;23215;-82
2023/05/11 10:13:31;;;;;;;15.15;3.83;;;39.60;26.20;37.30;101083;;;;571609;246;23163;-82
2023/05/11 10:15:59;;;;;;;12.93;3.37;;;39.30;26.20;36.50;101094;;;;569055;248;24158;-81
2023/05/11 10:18:27;;;;;;;19.60;5.00;;;38.70;26.60;35.50;101084;;;;563693;246;23176;-77
2023/05/11 10:20:55;;;;;;;51.03;8.45;;;37.80;26.90;34.90;101080;;;;568615;247;23136;-80
2023/05/11 10:23:22;;;;;;;9.90;3.30;;;37.00;27.40;35.00;101076;;;;555472;255;23195;-77
2023/05/11 10:25:53;;;;;;;11.73;3.20;;;36.70;27.30;34.30;101080;;;;563467;255;24230;-79
2023/05/11 10:28:21;;;;;;;13.90;3.67;;;35.20;26.90;33.10;101083;;;;565958;251;23148;-80
2023/05/11 10:30:46;;;;;;;5.28;2.87;;;35.30;27.50;31.90;101077;;;;579437;246;23114;-81
2023/05/11 10:33:17;;;;;;;4.55;3.12;;;34.20;28.00;30.80;101080;;;;573586;246;23140;-77
2023/05/11 10:35:42;;;;;;;5.93;3.12;;;33.00;28.50;30.10;101060;;;;573991;246;24089;-78
2023/05/11 10:38:10;;;;;;;9.93;3.85;;;32.00;29.20;29.00;101069;;;;572828;247;23114;-78
2023/05/11 10:40:38;;;;;;;10.82;3.83;;;29.50;30.10;27.60;101076;;;;571794;247;23066;-77
2023/05/11 10:43:14;;;;;;;5.37;3.00;;;26.70;30.90;26.20;101075;;;;562184;251;23113;-81
2023/05/11 10:45:47;;;;;;;6.70;2.30;;;26.00;33.70;24.60;101051;;;;561779;251;23082;-79
2023/05/11 10:48:30;;;;;;;12.93;3.93;;;24.20;35.90;23.30;101055;;;;561781;251;23088;-76
2023/05/11 10:51:13;;;;;;;6.27;3.37;;;23.70;38.20;22.50;101046;;;;561869;250;24149;-78
2023/05/11 10:53:59;;;;;;;10.70;2.80;;;22.80;39.20;21.80;101046;;;;558392;251;24143;-79
2023/05/11 10:56:48;;;;;;;10.27;3.35;;;21.80;39.50;21.10;101060;;;;565810;251;35231;-75
2023/05/11 10:59:52;;;;;;;9.53;3.57;;;21.00;39.20;20.20;101054;;;;564444;248;24108;-75
2023/05/11 11:02:21;;;;;;;10.73;4.27;;;20.40;41.90;19.80;101056;;;;569266;248;24132;-76
2023/05/11 11:04:49;;;;;;;20.67;4.67;;;20.00;41.00;19.40;101062;;;;569073;248;23146;-78
2023/05/11 11:07:20;;;;;;;24.50;4.50;;;20.00;44.40;19.20;101051;;;;569165;248;24112;-79
2023/05/11 11:09:55;;;;;;;8.83;3.77;;;19.50;42.40;19.00;101035;;;;569586;248;23160;-75
2023/05/11 11:12:26;;;;;;;8.07;3.37;;;19.30;42.90;18.90;101040;;;;577495;243;24100;-77
2023/05/11 11:15:01;;;;;;;19.40;3.87;;;19.20;42.70;18.70;101043;;;;569296;247;24171;-78
2023/05/11 11:17:33;;;;;;;10.23;3.97;;;19.10;43.10;18.60;101034;;;;568792;248;23251;-75
2023/05/11 11:20:07;;;;;;;22.83;3.50;;;18.60;46.30;18.40;101040;;;;569198;248;24145;-76